EST,Max TemperatureF,Mean TemperatureF,Min TemperatureF,Max Dew PointF,MeanDew PointF,Min DewpointF,Max Humidity, Mean Humidity, Min Humidity, Max Sea Level PressureIn, Mean Sea Level PressureIn, Min Sea Level PressureIn, Max VisibilityMiles, Mean VisibilityMiles, Min VisibilityMiles, Max Wind SpeedMPH, Mean Wind SpeedMPH, Max Gust SpeedMPH,PrecipitationIn, CloudCover, Events, WindDirDegrees
2013-12-1,32,26,20,30,27,17,96,87,78,30.26,30.12,30.05,10,4,1,10,4,14,0.02,8,Snow,57
2013-12-2,31,30,29,29,28,27,100,93,85,30.05,29.96,29.91,5,3,1,10,5,15,0.01,8,Snow,71
2013-12-3,34,26,18,31,26,18,100,91,82,30.07,29.99,29.91,9,2,0,6,1,7,0.00,6,Fog,232
2013-12-4,34,26,18,30,22,16,100,89,78,30.18,30.11,30.04,10,5,1,13,4,17,0.00,6,,77
2013-12-5,53,42,31,48,37,27,89,78,67,30.06,29.84,29.73,10,7,3,20,10,28,0.02,6,Rain,201
2013-12-6,42,36,30,32,25,17,96,74,52,30.20,30.07,29.93,10,10,4,20,10,28,0.01,6,Snow,242
2013-12-7,30,26,22,15,12,9,68,59,50,30.53,30.37,30.20,10,10,10,16,8,26,0.00,7,,288
2013-12-8,29,24,18,15,13,11,77,64,50,30.62,30.55,30.43,10,10,10,8,3,10,0.00,5,,206
2013-12-9,38,31,24,34,24,15,92,74,56,30.38,29.97,29.78,10,5,0,29,12,43,0.08,8,Fog-Rain-Snow,76
2013-12-10,34,25,15,16,13,6,84,65,46,29.97,29.90,29.86,10,9,1,29,11,45,T,4,Snow,249
2013-12-11,24,15,6,17,10,-2,91,73,55,30.27,30.10,29.97,10,6,0,23,10,29,T,5,Fog-Snow,271
2013-12-12,19,7,-5,10,1,-8,87,69,51,30.36,30.19,29.93,10,10,10,16,7,22,T,3,,223
2013-12-13,19,9,-1,10,-2,-11,74,60,45,30.54,30.19,29.92,10,9,2,20,10,26,T,4,Snow,304
2013-12-14,5,0,-6,0,-5,-13,86,73,59,30.66,30.39,30.05,10,5,0,24,10,31,0.01,4,Snow,65
2013-12-15,16,11,5,10,7,0,88,81,73,30.03,29.74,29.62,9,2,0,20,9,24,0.08,8,Fog-Snow,342
2013-12-16,11,-5,-21,5,-8,-27,81,66,51,30.32,30.03,29.76,10,8,1,18,8,23,T,3,Snow,264
2013-12-17,7,-9,-25,1,-10,-30,87,78,69,30.30,30.11,30.01,10,4,1,16,4,20,T,6,Snow,58
2013-12-18,25,15,4,19,7,0,88,81,73,30.04,30.01,29.95,10,6,2,8,4,10,T,8,Snow,134
2013-12-19,35,28,20,26,22,15,88,74,59,30.09,29.97,29.90,10,6,1,16,6,21,0.01,8,Snow,209
2013-12-20,32,26,19,27,20,15,91,85,78,30.09,29.97,29.91,10,2,0,21,10,25,0.29,8,Fog-Rain-Snow,51
2013-12-21,23,22,20,19,18,17,92,88,84,30.04,29.91,29.83,10,3,0,18,10,24,0.51,8,Fog-Rain-Snow,46
2013-12-22,21,20,19,18,17,16,91,88,84,30.02,29.87,29.75,10,3,0,29,16,36,0.56,8,Fog-Rain,58
2013-12-23,23,19,15,19,16,8,92,83,73,30.28,30.11,30.01,10,6,1,14,6,18,0.01,8,Snow,288
2013-12-24,15,6,-3,5,-2,-8,80,74,67,30.48,30.35,30.29,10,10,7,14,8,18,T,4,Snow,262
2013-12-25,7,-2,-12,0,-6,-17,86,78,69,30.62,30.53,30.35,10,10,10,12,5,15,0.00,2,,203
2013-12-26,24,15,5,19,11,0,92,85,77,30.32,30.17,30.09,10,4,1,15,5,17,0.01,8,Snow,64
2013-12-27,27,20,12,21,17,11,92,83,74,30.24,30.20,30.10,10,6,1,12,5,16,T,7,Snow,226
2013-12-28,37,27,17,32,29,18,89,82,75,30.06,29.99,29.93,10,8,5,22,11,28,T,8,Snow,219
2013-12-29,36,28,20,32,23,16,96,89,82,29.96,29.77,29.61,10,7,4,16,7,20,0.00,8,,68
2013-12-30,21,9,-4,18,0,-10,91,73,55,30.32,30.02,29.58,10,10,4,22,10,29,T,4,Rain,275
2013-12-31,8,2,-4,3,-1,-9,88,72,56,30.27,30.06,29.98,10,4,0,12,4,15,0.01,7,Snow,74